createdAt,value
2023-03-28T00:01:10.668Z,87.50
2023-03-28T00:03:40.300Z,87.58
2023-03-28T00:06:18.273Z,88.19
2023-03-28T00:08:45.965Z,87.74
2023-03-28T00:11:21.630Z,87.47
2023-03-28T00:13:53.469Z,86.84
2023-03-28T00:16:19.946Z,87.20
2023-03-28T00:18:46.576Z,87.03
2023-03-28T00:21:23.134Z,86.85
2023-03-28T00:23:54.556Z,86.68
2023-03-28T00:26:22.082Z,87.32
2023-03-28T00:28:48.856Z,87.33
2023-03-28T00:31:15.701Z,87.09
2023-03-28T00:33:42.151Z,87.24
2023-03-28T00:36:10.342Z,87.07
2023-03-28T00:38:38.573Z,87.09
2023-03-28T00:41:05.780Z,87.60
2023-03-28T00:43:52.425Z,87.23
2023-03-28T00:46:29.698Z,88.07
2023-03-28T00:49:05.796Z,88.03
2023-03-28T00:51:38.156Z,88.22
2023-03-28T00:54:07.698Z,88.59
2023-03-28T00:56:37.594Z,88.78
2023-03-28T00:59:08.009Z,89.16
2023-03-28T01:01:34.828Z,89.41
2023-03-28T01:04:06.836Z,89.64
2023-03-28T01:06:37.757Z,89.60
2023-03-28T01:09:07.927Z,89.41
2023-03-28T01:11:36.789Z,89.84
2023-03-28T01:14:04.394Z,89.24
2023-03-28T01:16:31.134Z,89.38
2023-03-28T01:19:03.592Z,88.83
2023-03-28T01:21:54.729Z,89.18
2023-03-28T01:25:04.328Z,89.08
2023-03-28T01:27:52.093Z,88.71
2023-03-28T01:30:47.325Z,87.93
2023-03-28T01:34:24.301Z,88.98
2023-03-28T01:37:06.077Z,88.03
2023-03-28T01:40:06.736Z,88.83
2023-03-28T01:43:05.249Z,89.10
2023-03-28T01:45:43.569Z,88.20
2023-03-28T01:48:21.998Z,88.24
2023-03-28T01:51:08.800Z,88.92
2023-03-28T01:53:47.685Z,88.87
2023-03-28T01:56:53.221Z,88.26
2023-03-28T01:59:37.817Z,88.61
2023-03-28T02:02:37.485Z,87.70
2023-03-28T02:05:25.957Z,87.45
2023-03-28T02:07:54.529Z,87.55
2023-03-28T02:10:38.843Z,87.68
2023-03-28T02:13:35.241Z,88.49
2023-03-28T02:16:26.617Z,88.35
2023-03-28T02:19:01.834Z,88.21
2023-03-28T02:22:09.098Z,87.29
2023-03-28T02:24:54.224Z,87.88
2023-03-28T02:27:39.404Z,87.10
2023-03-28T02:30:17.440Z,86.84
2023-03-28T02:32:50.429Z,87.22
2023-03-28T02:35:26.003Z,87.33
2023-03-28T02:38:08.628Z,87.06
2023-03-28T02:41:06.778Z,86.55
2023-03-28T02:43:59.452Z,87.05
2023-03-28T02:46:50.628Z,86.52
2023-03-28T02:49:50.016Z,86.06
2023-03-28T02:52:23.592Z,86.50
2023-03-28T02:54:58.606Z,85.96
2023-03-28T02:57:36.487Z,85.75
2023-03-28T03:00:12.009Z,85.93
2023-03-28T03:02:41.850Z,85.83
2023-03-28T03:05:09.723Z,85.94
2023-03-28T03:07:37.674Z,84.81
2023-03-28T03:10:09.532Z,84.89
2023-03-28T03:12:36.665Z,84.65
2023-03-28T03:15:05.150Z,85.28
2023-03-28T03:17:47.922Z,85.56
2023-03-28T03:20:16.587Z,85.59
2023-03-28T03:22:43.504Z,85.63
2023-03-28T03:25:13.882Z,85.37
2023-03-28T03:27:53.486Z,84.58
2023-03-28T03:30:20.362Z,85.48
2023-03-28T03:33:17.229Z,85.18
2023-03-28T03:35:48.395Z,84.77
2023-03-28T03:38:16.054Z,85.09
2023-03-28T03:40:42.519Z,84.65
2023-03-28T03:43:09.756Z,85.55
2023-03-28T03:45:40.519Z,85.59
2023-03-28T03:48:08.271Z,85.03
2023-03-28T03:50:34.955Z,85.61
2023-03-28T03:53:03.019Z,85.19
2023-03-28T03:55:40.591Z,86.29
2023-03-28T03:58:07.619Z,85.67
2023-03-28T04:00:37.542Z,86.03
2023-03-28T04:03:13.108Z,86.49
2023-03-28T04:05:52.740Z,86.25
2023-03-28T04:08:19.153Z,86.35
2023-03-28T04:10:48.032Z,86.05
2023-03-28T04:13:15.117Z,86.15
2023-03-28T04:15:43.049Z,86.70
2023-03-28T04:18:29.698Z,86.56
2023-03-28T04:21:01.542Z,86.22
2023-03-28T04:23:38.672Z,87.13
2023-03-28T04:26:08.693Z,86.83
2023-03-28T04:28:48.024Z,86.66
2023-03-28T04:31:14.438Z,86.46
2023-03-28T04:34:07.329Z,86.60
2023-03-28T04:36:42.256Z,86.90
2023-03-28T04:39:08.853Z,86.82
2023-03-28T04:41:55.450Z,87.26
2023-03-28T04:44:29.688Z,87.59
2023-03-28T04:47:01.784Z,88.25
2023-03-28T04:49:28.468Z,87.40
2023-03-28T04:51:55.203Z,87.58
2023-03-28T04:54:21.813Z,87.81
2023-03-28T04:56:48.297Z,88.28
2023-03-28T04:59:20.128Z,87.83
2023-03-28T05:01:49.753Z,87.54
2023-03-28T05:04:26.646Z,88.28
2023-03-28T05:06:54.050Z,87.63
2023-03-28T05:09:20.815Z,88.12
2023-03-28T05:11:48.025Z,88.38
2023-03-28T05:14:14.670Z,88.09
2023-03-28T05:16:47.568Z,88.41
2023-03-28T05:19:40.310Z,87.58
2023-03-28T05:22:15.303Z,88.13
2023-03-28T05:24:42.865Z,87.98
2023-03-28T05:27:17.309Z,88.75
2023-03-28T05:29:44.082Z,88.43
2023-03-28T05:32:12.729Z,88.79
2023-03-28T05:34:40.261Z,88.29
2023-03-28T05:37:06.702Z,87.86
2023-03-28T05:39:43.496Z,87.68
2023-03-28T05:42:10.312Z,87.47
2023-03-28T05:44:39.400Z,88.61
2023-03-28T05:47:29.088Z,87.60
2023-03-28T05:49:57.007Z,87.83
2023-03-28T05:52:23.636Z,87.36
2023-03-28T05:54:52.340Z,87.54
2023-03-28T05:57:21.380Z,88.38
2023-03-28T05:59:48.441Z,87.40
2023-03-28T06:02:20.497Z,87.73
2023-03-28T06:04:47.518Z,87.77
2023-03-28T06:07:14.922Z,88.06
2023-03-28T06:09:42.997Z,87.21
2023-03-28T06:12:10.627Z,87.93
2023-03-28T06:14:41.939Z,88.04
2023-03-28T06:17:17.597Z,86.98
2023-03-28T06:19:49.114Z,86.55
2023-03-28T06:22:15.670Z,87.56
2023-03-28T06:24:46.432Z,86.59
2023-03-28T06:27:12.965Z,86.41
2023-03-28T06:29:39.448Z,86.53
2023-03-28T06:32:06.770Z,86.17
2023-03-28T06:34:33.259Z,85.98
2023-03-28T06:37:01.942Z,85.26
2023-03-28T06:39:42.661Z,85.73
2023-03-28T06:42:10.048Z,84.66
2023-03-28T06:44:46.641Z,84.57
2023-03-28T06:47:35.930Z,85.00
2023-03-28T06:50:02.550Z,85.00
2023-03-28T06:52:38.560Z,84.24
2023-03-28T06:55:08.066Z,84.18
2023-03-28T06:57:34.489Z,83.58
2023-03-28T07:00:33.292Z,82.96
2023-03-28T07:03:26.252Z,83.08
2023-03-28T07:05:52.903Z,82.53
2023-03-28T07:08:19.375Z,82.67
2023-03-28T07:10:46.382Z,82.24
2023-03-28T07:13:13.729Z,82.26
2023-03-28T07:16:01.950Z,82.29
2023-03-28T07:18:28.666Z,81.31
2023-03-28T07:21:04.164Z,81.11
2023-03-28T07:23:32.550Z,81.13
2023-03-28T07:25:58.988Z,80.68
2023-03-28T07:28:25.773Z,80.28
2023-03-28T07:30:56.335Z,80.29
2023-03-28T07:33:29.074Z,79.96
2023-03-28T07:36:15.025Z,79.04
2023-03-28T07:38:44.530Z,78.38
2023-03-28T07:41:12.760Z,78.41
2023-03-28T07:43:40.039Z,78.33
2023-03-28T07:46:09.400Z,78.59
2023-03-28T07:48:37.718Z,78.15
2023-03-28T07:51:06.374Z,78.09
2023-03-28T07:53:33.798Z,77.21
2023-03-28T07:56:00.768Z,77.35
2023-03-28T07:58:56.876Z,76.67
2023-03-28T08:01:23.553Z,76.04
2023-03-28T08:03:54.655Z,75.83
2023-03-28T08:06:32.042Z,75.81
2023-03-28T08:09:00.756Z,75.22
2023-03-28T08:11:42.969Z,74.06
2023-03-28T08:14:13.259Z,74.22
2023-03-28T08:16:40.573Z,73.94
2023-03-28T08:19:11.457Z,74.13
2023-03-28T08:21:55.682Z,73.27
2023-03-28T08:24:33.024Z,71.70
2023-03-28T08:27:07.855Z,71.36
2023-03-28T08:29:34.348Z,70.56
2023-03-28T08:32:00.917Z,70.55
2023-03-28T08:34:27.422Z,70.75
2023-03-28T08:36:59.090Z,70.86
2023-03-28T08:39:27.173Z,70.42
2023-03-28T08:42:06.822Z,69.62
2023-03-28T08:44:58.104Z,67.49
2023-03-28T08:47:32.961Z,67.54
2023-03-28T08:50:07.949Z,66.70
2023-03-28T08:52:35.941Z,65.63
2023-03-28T08:55:13.658Z,65.54
2023-03-28T08:57:42.365Z,63.39
2023-03-28T09:00:27.909Z,63.91
2023-03-28T09:02:55.505Z,64.87
2023-03-28T09:05:39.235Z,63.72
2023-03-28T09:08:32.379Z,63.48
2023-03-28T09:11:13.483Z,62.54
2023-03-28T09:14:06.117Z,62.80
2023-03-28T09:17:02.968Z,60.36
2023-03-28T09:19:48.205Z,60.33
2023-03-28T09:23:06.044Z,60.81
2023-03-28T09:26:07.772Z,60.87
2023-03-28T09:29:01.901Z,61.21
2023-03-28T09:31:44.447Z,60.41
2023-03-28T09:34:27.334Z,60.97
2023-03-28T09:37:01.054Z,61.12
2023-03-28T09:39:36.841Z,61.76
2023-03-28T09:42:08.049Z,61.84
2023-03-28T09:45:20.511Z,61.48
2023-03-28T09:47:53.270Z,60.81
2023-03-28T09:50:23.788Z,59.88
2023-03-28T09:52:56.893Z,59.07
2023-03-28T09:55:27.190Z,58.86
2023-03-28T09:58:09.920Z,57.29
2023-03-28T10:01:23.035Z,58.60
2023-03-28T10:04:31.249Z,57.29
2023-03-28T10:07:33.615Z,56.83
2023-03-28T10:10:24.819Z,57.23
2023-03-28T10:13:02.672Z,56.30
2023-03-28T10:15:32.772Z,55.59
2023-03-28T10:18:21.071Z,55.55
2023-03-28T10:21:14.813Z,54.38
2023-03-28T10:23:47.933Z,53.49
2023-03-28T10:26:22.050Z,51.46
2023-03-28T10:28:54.098Z,51.92
2023-03-28T10:31:31.790Z,51.97
2023-03-28T10:34:25.784Z,50.87
2023-03-28T10:36:58.118Z,50.97
2023-03-28T10:39:34.232Z,50.70
2023-03-28T10:42:22.602Z,50.68
2023-03-28T10:45:20.148Z,50.99
2023-03-28T10:47:52.537Z,49.40
2023-03-28T10:50:29.602Z,49.53
2023-03-28T10:53:34.007Z,48.73
2023-03-28T10:56:18.338Z,49.18
2023-03-28T10:59:17.149Z,48.53
2023-03-28T11:02:07.356Z,47.89
2023-03-28T11:05:01.542Z,48.27
2023-03-28T11:07:49.490Z,47.09
2023-03-28T11:10:42.750Z,48.08
2023-03-28T11:13:42.328Z,47.38
2023-03-28T11:16:35.391Z,47.05
2023-03-28T11:19:45.649Z,46.26
2023-03-28T11:22:24.412Z,46.33
2023-03-28T11:25:08.481Z,44.87
2023-03-28T11:28:16.153Z,45.40
2023-03-28T11:30:49.763Z,44.64
2023-03-28T11:34:04.979Z,43.32
2023-03-28T11:36:46.322Z,43.48
2023-03-28T11:39:50.792Z,42.75
2023-03-28T11:42:34.739Z,42.56
2023-03-28T11:45:46.695Z,42.69
2023-03-28T11:48:26.286Z,41.95
2023-03-28T11:51:05.927Z,42.58
2023-03-28T11:54:08.421Z,42.28
2023-03-28T11:57:03.986Z,40.58
2023-03-28T11:59:53.676Z,41.28
2023-03-28T12:02:41.775Z,41.48
2023-03-28T12:05:18.350Z,40.98
2023-03-28T12:08:13.111Z,41.18
2023-03-28T12:10:45.837Z,41.43
2023-03-28T12:13:45.485Z,39.70
2023-03-28T12:16:21.804Z,40.75
2023-03-28T12:18:52.262Z,37.76
2023-03-28T12:21:59.480Z,37.85
2023-03-28T12:24:57.963Z,37.86
2023-03-28T12:28:04.510Z,36.42
2023-03-28T12:30:40.421Z,37.63
2023-03-28T12:33:24.208Z,38.10
2023-03-28T12:36:10.488Z,38.39
2023-03-28T12:38:59.822Z,39.21
2023-03-28T12:41:36.326Z,38.55
2023-03-28T12:44:08.241Z,37.77
2023-03-28T12:47:01.716Z,38.45
2023-03-28T12:49:37.024Z,37.71
2023-03-28T12:52:14.469Z,36.92
2023-03-28T12:55:07.267Z,37.55
2023-03-28T12:57:46.297Z,38.06
2023-03-28T13:00:48.771Z,36.94
2023-03-28T13:03:58.084Z,37.36
2023-03-28T13:07:14.728Z,36.10
2023-03-28T13:10:24.100Z,35.19
2023-03-28T13:13:06.384Z,35.08
2023-03-28T13:15:33.584Z,35.95
2023-03-28T13:18:22.232Z,35.60
2023-03-28T13:20:51.862Z,35.16
2023-03-28T13:23:25.218Z,34.37
2023-03-28T13:25:56.596Z,34.15
2023-03-28T13:28:32.330Z,34.76
2023-03-28T13:31:07.786Z,34.51
2023-03-28T13:33:38.178Z,35.05
2023-03-28T13:36:04.763Z,34.54
2023-03-28T13:38:33.530Z,34.76
2023-03-28T13:41:06.200Z,34.30
2023-03-28T13:43:39.496Z,34.71
2023-03-28T13:46:18.713Z,34.89
2023-03-28T13:49:09.631Z,34.71
2023-03-28T13:51:42.281Z,35.33
2023-03-28T13:54:10.862Z,34.81
2023-03-28T13:56:44.390Z,34.30
2023-03-28T13:59:26.770Z,32.54
2023-03-28T14:01:54.866Z,32.55
2023-03-28T14:04:49.510Z,33.13
2023-03-28T14:07:16.244Z,33.16
2023-03-28T14:09:42.732Z,33.14
2023-03-28T14:12:14.380Z,33.20
2023-03-28T14:14:51.414Z,33.68
2023-03-28T14:17:25.096Z,34.63
2023-03-28T14:20:17.344Z,33.76
2023-03-28T14:22:59.626Z,34.52
2023-03-28T14:25:28.588Z,35.36
2023-03-28T14:27:56.918Z,35.71
2023-03-28T14:30:38.835Z,35.36
2023-03-28T14:33:20.274Z,35.65
2023-03-28T14:36:02.752Z,35.67
2023-03-28T14:38:33.594Z,35.33
2023-03-28T14:41:13.116Z,34.98
2023-03-28T14:43:39.767Z,34.83
2023-03-28T14:46:09.198Z,34.77
2023-03-28T14:48:38.128Z,34.43
2023-03-28T14:51:05.888Z,34.30
2023-03-28T14:53:40.200Z,33.79
2023-03-28T14:56:14.021Z,34.43
2023-03-28T14:58:43.364Z,34.50
2023-03-28T15:01:15.781Z,34.07
2023-03-28T15:03:46.370Z,33.36
2023-03-28T15:06:18.542Z,33.09
2023-03-28T15:08:45.528Z,33.94
2023-03-28T15:11:32.377Z,34.24
2023-03-28T15:14:12.723Z,33.56
2023-03-28T15:16:42.602Z,33.24
2023-03-28T15:19:19.418Z,34.58
2023-03-28T15:21:54.297Z,33.69
2023-03-28T15:24:21.144Z,34.51
2023-03-28T15:26:51.294Z,35.14
2023-03-28T15:29:20.611Z,36.51
2023-03-28T15:31:48.121Z,35.80
2023-03-28T15:34:24.189Z,34.85
2023-03-28T15:37:02.548Z,35.35
2023-03-28T15:39:34.736Z,35.74
2023-03-28T15:42:19.549Z,34.81
2023-03-28T15:45:21.235Z,35.53
2023-03-28T15:47:49.945Z,35.15
2023-03-28T15:50:29.283Z,33.36
2023-03-28T15:52:57.980Z,34.58
2023-03-28T15:55:26.987Z,34.45
2023-03-28T15:57:55.197Z,32.97
2023-03-28T16:00:52.607Z,32.19
2023-03-28T16:03:24.808Z,30.27
2023-03-28T16:06:01.837Z,29.60
2023-03-28T16:08:40.137Z,29.79
2023-03-28T16:11:14.633Z,31.77
2023-03-28T16:14:01.044Z,33.10
2023-03-28T16:16:46.457Z,33.80
2023-03-28T16:19:22.784Z,32.49
2023-03-28T16:21:50.457Z,31.41
2023-03-28T16:24:17.586Z,31.85
2023-03-28T16:26:44.339Z,32.58
2023-03-28T16:29:11.352Z,32.68
2023-03-28T16:31:38.063Z,31.89
2023-03-28T16:34:07.078Z,32.46
2023-03-28T16:36:35.033Z,32.99
2023-03-28T16:39:01.656Z,32.93
2023-03-28T16:41:28.209Z,32.89
2023-03-28T16:43:54.617Z,31.95
2023-03-28T16:46:21.345Z,31.71
2023-03-28T16:48:47.861Z,31.86
2023-03-28T16:51:14.300Z,32.70
2023-03-28T16:53:41.097Z,32.13
2023-03-28T16:56:11.839Z,31.18
2023-03-28T16:58:39.332Z,28.01
2023-03-28T17:01:09.384Z,25.42
2023-03-28T17:03:36.628Z,23.24
2023-03-28T17:06:06.126Z,23.07
2023-03-28T17:08:32.521Z,22.54
2023-03-28T17:11:00.060Z,22.41
2023-03-28T17:13:27.370Z,22.36
2023-03-28T17:15:55.048Z,22.50
2023-03-28T17:18:21.549Z,23.16
2023-03-28T17:20:58.701Z,25.04
2023-03-28T17:23:25.575Z,27.65
2023-03-28T17:25:54.641Z,30.27
2023-03-28T17:28:21.773Z,32.37
2023-03-28T17:30:48.417Z,33.67
2023-03-28T17:33:15.192Z,35.54
2023-03-28T17:35:41.688Z,36.51
2023-03-28T17:38:08.847Z,37.77
2023-03-28T17:40:36.371Z,38.60
2023-03-28T17:43:03.985Z,39.98
2023-03-28T17:45:30.809Z,41.04
2023-03-28T17:47:57.428Z,41.80
2023-03-28T17:50:25.150Z,42.63
2023-03-28T17:52:51.742Z,43.51
2023-03-28T17:55:18.286Z,44.30
2023-03-28T17:57:44.761Z,44.76
2023-03-28T18:00:11.677Z,44.56
2023-03-28T18:02:45.913Z,45.58
2023-03-28T18:05:28.557Z,45.77
2023-03-28T18:07:57.587Z,46.83
2023-03-28T18:10:24.472Z,47.16
2023-03-28T18:12:51.436Z,47.61
2023-03-28T18:15:18.054Z,47.58
2023-03-28T18:17:45.115Z,47.92
2023-03-28T18:20:12.751Z,48.26
2023-03-28T18:22:39.385Z,48.05
2023-03-28T18:25:06.513Z,48.32
2023-03-28T18:27:33.060Z,48.49
2023-03-28T18:30:04.745Z,48.58
2023-03-28T18:32:31.937Z,49.24
2023-03-28T18:34:58.369Z,49.40
2023-03-28T18:37:24.841Z,50.01
2023-03-28T18:39:51.229Z,49.88
2023-03-28T18:42:17.672Z,50.50
2023-03-28T18:44:44.056Z,49.89
2023-03-28T18:47:10.657Z,50.15
2023-03-28T18:49:37.088Z,49.82
2023-03-28T18:52:06.787Z,50.37
2023-03-28T18:54:34.656Z,50.90
2023-03-28T18:57:01.565Z,51.25
2023-03-28T18:59:28.039Z,51.02
2023-03-28T19:01:54.673Z,50.30
2023-03-28T19:04:23.476Z,50.27
2023-03-28T19:06:51.775Z,51.38
2023-03-28T19:09:18.211Z,50.76
2023-03-28T19:11:45.448Z,51.36
2023-03-28T19:14:11.816Z,50.66
2023-03-28T19:16:38.291Z,50.44
2023-03-28T19:19:04.818Z,51.43
2023-03-28T19:21:31.346Z,51.58
2023-03-28T19:23:57.757Z,50.98
2023-03-28T19:26:24.353Z,51.64
2023-03-28T19:28:53.507Z,52.02
2023-03-28T19:31:21.832Z,51.59
2023-03-28T19:33:48.703Z,52.06
2023-03-28T19:36:15.382Z,52.77
2023-03-28T19:38:42.011Z,52.91
2023-03-28T19:41:19.934Z,52.76
2023-03-28T19:43:47.873Z,52.42
2023-03-28T19:46:26.868Z,52.57
2023-03-28T19:49:01.179Z,53.05
2023-03-28T19:51:28.374Z,53.25
2023-03-28T19:53:55.552Z,52.86
2023-03-28T19:56:23.438Z,52.88
2023-03-28T19:58:51.865Z,52.12
2023-03-28T20:01:18.632Z,52.99
2023-03-28T20:03:46.847Z,52.84
2023-03-28T20:06:13.823Z,51.78
2023-03-28T20:08:40.871Z,53.02
2023-03-28T20:11:08.709Z,52.70
2023-03-28T20:13:36.032Z,53.03
2023-03-28T20:16:04.464Z,53.10
2023-03-28T20:18:32.423Z,53.01
2023-03-28T20:21:01.485Z,53.14
2023-03-28T20:23:29.954Z,52.95
2023-03-28T20:25:58.645Z,53.05
2023-03-28T20:28:25.627Z,53.38
2023-03-28T20:30:53.332Z,53.23
2023-03-28T20:33:20.586Z,53.23
2023-03-28T20:35:58.270Z,53.95
2023-03-28T20:38:27.827Z,53.68
2023-03-28T20:40:54.244Z,53.57
2023-03-28T20:43:20.987Z,54.68
2023-03-28T20:45:55.284Z,54.99
2023-03-28T20:48:34.978Z,54.51
2023-03-28T20:51:05.841Z,54.42
2023-03-28T20:53:33.140Z,55.59
2023-03-28T20:56:04.750Z,54.89
2023-03-28T20:58:32.591Z,55.61
2023-03-28T21:01:01.254Z,55.18
2023-03-28T21:03:48.159Z,55.22
2023-03-28T21:06:16.617Z,54.98
2023-03-28T21:08:45.849Z,55.07
2023-03-28T21:11:16.957Z,55.14
2023-03-28T21:13:43.889Z,55.66
2023-03-28T21:16:12.145Z,55.80
2023-03-28T21:18:38.632Z,55.61
2023-03-28T21:21:07.222Z,54.76
2023-03-28T21:23:38.901Z,54.25
2023-03-28T21:26:07.128Z,53.99
2023-03-28T21:28:34.605Z,54.57
2023-03-28T21:31:10.230Z,54.69
2023-03-28T21:33:38.254Z,53.84
2023-03-28T21:36:07.268Z,54.10
2023-03-28T21:38:34.804Z,53.36
2023-03-28T21:41:01.602Z,53.50
2023-03-28T21:43:28.229Z,53.94
2023-03-28T21:45:54.683Z,52.56
2023-03-28T21:48:21.138Z,52.99
2023-03-28T21:50:50.042Z,52.97
2023-03-28T21:53:16.463Z,53.00
2023-03-28T21:55:42.861Z,53.09
2023-03-28T21:58:09.240Z,52.43
2023-03-28T22:00:35.709Z,52.11
2023-03-28T22:03:02.142Z,52.20
2023-03-28T22:05:29.675Z,52.55
2023-03-28T22:07:57.779Z,51.85
2023-03-28T22:10:29.331Z,53.19
2023-03-28T22:12:58.733Z,52.58
2023-03-28T22:15:26.165Z,52.33
2023-03-28T22:17:58.104Z,52.47
2023-03-28T22:20:27.392Z,51.96
2023-03-28T22:22:54.305Z,51.95
2023-03-28T22:25:22.531Z,52.27
2023-03-28T22:27:49.016Z,51.90
2023-03-28T22:30:15.419Z,52.51
2023-03-28T22:32:41.892Z,52.20
2023-03-28T22:35:08.631Z,52.46
2023-03-28T22:37:35.059Z,52.53
2023-03-28T22:40:01.757Z,52.99
2023-03-28T22:42:28.700Z,53.46
2023-03-28T22:44:55.092Z,53.74
2023-03-28T22:47:21.539Z,53.08
2023-03-28T22:49:47.941Z,54.32
2023-03-28T22:52:14.315Z,54.73
2023-03-28T22:54:42.593Z,54.92
2023-03-28T22:57:09.301Z,53.65
2023-03-28T22:59:36.348Z,55.07
2023-03-28T23:02:03.513Z,54.49
2023-03-28T23:04:30.061Z,54.95
2023-03-28T23:06:58.483Z,54.97
2023-03-28T23:09:27.282Z,55.10
2023-03-28T23:11:55.055Z,54.65
2023-03-28T23:14:22.096Z,55.64
2023-03-28T23:16:48.745Z,55.84
2023-03-28T23:19:16.255Z,55.69
2023-03-28T23:21:42.936Z,56.28
2023-03-28T23:24:09.660Z,57.21
2023-03-28T23:26:36.050Z,57.98
2023-03-28T23:29:02.730Z,57.79
2023-03-28T23:31:29.199Z,57.89
2023-03-28T23:33:55.875Z,61.25
2023-03-28T23:36:22.305Z,64.37
2023-03-28T23:38:48.749Z,64.75
2023-03-28T23:41:15.435Z,66.69
2023-03-28T23:43:41.877Z,68.14
2023-03-28T23:46:08.945Z,68.56
2023-03-28T23:48:36.179Z,69.79
2023-03-28T23:51:03.068Z,69.94
2023-03-28T23:53:30.394Z,71.53
2023-03-28T23:55:56.798Z,71.94
2023-03-28T23:58:23.184Z,72.38
